Time;durP1;ratioP1;P1;durP2;ratioP2;P2;SDS_P1;SDS_P2;PMS_P1;PMS_P2;Temp;Humidity;BMP_temperature;BMP_pressure;BME280_temperature;BME280_humidity;BME280_pressure;Samples;Min_cycle;Max_cycle;Signal;HPM_P1;HPM_P2
2023/12/18 00:00:10;;;;;;;4.07;3.27;;;6.20;91.10;;;;;;5073113;28;20321;-84
2023/12/18 00:02:39;;;;;;;6.20;3.30;;;6.10;91.10;;;;;;5074890;28;20233;-83
2023/12/18 00:05:09;;;;;;;4.67;3.83;;;6.10;91.10;;;;;;5066757;28;20624;-82
2023/12/18 00:07:38;;;;;;;5.00;2.73;;;6.10;91.10;;;;;;5077729;28;20688;-84
2023/12/18 00:10:08;;;;;;;4.83;3.93;;;6.20;91.10;;;;;;5073455;28;20220;-84
2023/12/18 00:12:37;;;;;;;2.70;2.50;;;6.10;91.10;;;;;;5072538;28;20241;-83
2023/12/18 00:15:09;;;;;;;4.10;3.60;;;6.10;91.20;;;;;;5071679;28;20196;-82
2023/12/18 00:17:37;;;;;;;2.33;2.20;;;6.10;91.10;;;;;;5071635;28;20205;-83
2023/12/18 00:20:07;;;;;;;1.83;1.70;;;6.10;91.10;;;;;;5071442;28;20206;-83
2023/12/18 00:22:36;;;;;;;4.27;3.67;;;6.10;91.10;;;;;;5072226;28;20673;-84
2023/12/18 00:25:05;;;;;;;2.07;1.87;;;6.10;91.10;;;;;;5071364;28;20209;-82
2023/12/18 00:27:33;;;;;;;3.90;2.43;;;6.10;91.10;;;;;;5073990;28;20265;-82
2023/12/18 00:30:03;;;;;;;2.40;2.20;;;6.10;91.00;;;;;;5079564;28;20205;-82
2023/12/18 00:32:34;;;;;;;2.73;2.53;;;6.10;91.00;;;;;;5075702;28;20202;-82
2023/12/18 00:35:03;;;;;;;2.47;2.30;;;6.10;91.00;;;;;;5072887;28;20657;-82
2023/12/18 00:37:32;;;;;;;3.10;2.87;;;6.10;91.00;;;;;;5079554;28;20248;-82
2023/12/18 00:40:00;;;;;;;3.17;2.27;;;6.00;90.90;;;;;;5072388;28;20289;-83
2023/12/18 00:42:29;;;;;;;3.43;1.77;;;6.00;90.90;;;;;;5079808;28;20681;-82
2023/12/18 00:44:58;;;;;;;6.93;3.20;;;6.00;90.90;;;;;;5073275;28;20221;-82
2023/12/18 00:47:26;;;;;;;4.43;3.00;;;6.00;90.90;;;;;;5069319;28;20208;-82
2023/12/18 00:49:56;;;;;;;1.63;1.53;;;6.00;90.90;;;;;;5067546;28;20225;-82
2023/12/18 00:52:25;;;;;;;4.00;1.87;;;6.00;90.90;;;;;;5075766;28;20704;-82
2023/12/18 00:54:53;;;;;;;3.53;3.07;;;6.00;90.90;;;;;;5073363;28;20205;-84
2023/12/18 00:57:22;;;;;;;4.63;2.73;;;6.00;90.90;;;;;;5074674;28;20202;-83
2023/12/18 00:59:50;;;;;;;1.43;1.33;;;6.00;90.90;;;;;;5069450;28;20657;-83
2023/12/18 01:02:19;;;;;;;4.50;1.70;;;6.00;90.90;;;;;;5070362;28;20198;-82
2023/12/18 01:04:47;;;;;;;4.30;2.43;;;6.00;90.80;;;;;;5074435;28;20217;-83
2023/12/18 01:07:18;;;;;;;4.10;3.67;;;6.00;90.80;;;;;;5068805;28;20190;-82
2023/12/18 01:09:46;;;;;;;2.90;2.70;;;6.00;90.80;;;;;;5074873;28;20319;-82
2023/12/18 01:12:15;;;;;;;2.40;2.00;;;6.00;90.80;;;;;;5074446;28;20281;-82
2023/12/18 01:14:44;;;;;;;1.50;1.37;;;6.00;90.80;;;;;;5070004;28;20207;-83
2023/12/18 01:17:14;;;;;;;3.20;2.90;;;6.00;90.70;;;;;;5073661;28;20269;-83
2023/12/18 01:19:46;;;;;;;1.67;1.57;;;5.90;90.70;;;;;;5074509;28;20195;-83
2023/12/18 01:22:17;;;;;;;5.50;3.80;;;5.90;90.70;;;;;;5075584;28;20186;-82
2023/12/18 01:24:45;;;;;;;1.83;1.73;;;5.90;90.60;;;;;;5075413;28;20201;-82
2023/12/18 01:27:14;;;;;;;3.27;2.77;;;5.80;90.60;;;;;;5080322;28;20198;-82
2023/12/18 01:29:47;;;;;;;4.30;3.13;;;5.80;90.70;;;;;;5073357;28;20310;-83
2023/12/18 01:32:15;;;;;;;2.40;2.23;;;5.80;90.70;;;;;;5078825;28;20655;-83
2023/12/18 01:34:44;;;;;;;3.07;2.87;;;5.70;90.70;;;;;;5076085;28;20204;-82
2023/12/18 01:37:14;;;;;;;2.67;2.20;;;5.70;90.70;;;;;;5075480;28;20390;-83
2023/12/18 01:39:43;;;;;;;7.00;2.03;;;5.70;90.70;;;;;;5072070;28;20267;-83
2023/12/18 01:42:12;;;;;;;7.27;4.00;;;5.70;90.70;;;;;;5078469;28;20197;-81
2023/12/18 01:44:41;;;;;;;2.17;1.97;;;5.70;90.80;;;;;;5071214;28;20198;-82
2023/12/18 01:47:11;;;;;;;4.10;3.30;;;5.60;90.90;;;;;;5072517;28;20223;-83
2023/12/18 01:49:40;;;;;;;2.37;2.17;;;5.60;90.80;;;;;;5074562;28;20222;-83
2023/12/18 01:52:09;;;;;;;3.13;2.83;;;5.60;90.90;;;;;;5073034;28;20225;-83
2023/12/18 01:54:40;;;;;;;1.93;1.80;;;5.60;90.90;;;;;;5071533;28;20740;-83
2023/12/18 01:57:10;;;;;;;4.07;2.73;;;5.50;90.90;;;;;;5074414;28;20282;-83
2023/12/18 01:59:48;;;;;;;5.40;2.27;;;5.60;90.90;;;;;;5079797;28;20226;-84
2023/12/18 02:02:17;;;;;;;3.33;2.97;;;5.60;90.90;;;;;;5073822;28;20199;-83
2023/12/18 02:04:48;;;;;;;6.33;3.37;;;5.50;90.90;;;;;;5074953;28;20272;-83
2023/12/18 02:07:17;;;;;;;3.70;2.70;;;5.50;90.90;;;;;;5074203;28;20204;-82
2023/12/18 02:09:46;;;;;;;2.30;2.20;;;5.50;90.90;;;;;;5074315;28;20261;-82
2023/12/18 02:12:16;;;;;;;4.67;3.07;;;5.50;90.90;;;;;;5075682;28;20305;-82
2023/12/18 02:14:44;;;;;;;2.03;1.93;;;5.50;90.90;;;;;;5071360;28;20295;-83
2023/12/18 02:17:13;;;;;;;3.10;2.63;;;5.50;90.90;;;;;;5083740;28;20207;-83
2023/12/18 02:19:42;;;;;;;2.23;1.97;;;5.40;90.80;;;;;;5074615;28;20293;-82
2023/12/18 02:22:11;;;;;;;2.40;2.30;;;5.40;90.90;;;;;;5075067;28;20204;-82
2023/12/18 02:24:41;;;;;;;2.60;1.97;;;5.40;90.90;;;;;;5074483;28;20376;-82
2023/12/18 02:27:13;;;;;;;4.63;3.60;;;5.30;90.90;;;;;;5082520;28;20493;-82
2023/12/18 02:29:42;;;;;;;3.27;2.47;;;5.40;91.00;;;;;;5077174;28;20230;-83
2023/12/18 02:32:11;;;;;;;1.93;1.83;;;5.40;91.00;;;;;;5079710;28;20202;-82
2023/12/18 02:34:40;;;;;;;6.30;4.13;;;5.30;91.00;;;;;;5074307;28;20581;-82
2023/12/18 02:37:08;;;;;;;1.90;1.80;;;5.40;91.00;;;;;;5068705;28;20285;-82
2023/12/18 02:39:37;;;;;;;5.07;2.50;;;5.40;91.00;;;;;;5077387;28;20224;-83
2023/12/18 02:42:07;;;;;;;2.57;2.37;;;5.40;91.00;;;;;;5078260;28;20206;-82
2023/12/18 02:44:38;;;;;;;3.03;2.73;;;5.40;91.00;;;;;;5076381;28;20448;-82
2023/12/18 02:47:06;;;;;;;3.50;3.20;;;5.40;91.00;;;;;;5074260;28;20202;-81
2023/12/18 02:49:35;;;;;;;4.70;3.73;;;5.40;91.00;;;;;;5074661;28;20224;-82
2023/12/18 02:52:04;;;;;;;2.43;1.90;;;5.30;90.90;;;;;;5075396;28;20296;-82
2023/12/18 02:54:33;;;;;;;6.00;2.53;;;5.30;91.00;;;;;;5073537;28;20206;-82
2023/12/18 02:57:02;;;;;;;3.23;2.43;;;5.30;91.00;;;;;;5086777;28;20196;-82
2023/12/18 02:59:32;;;;;;;4.43;3.00;;;5.20;91.00;;;;;;5081930;28;20233;-82
2023/12/18 03:02:01;;;;;;;3.60;3.30;;;5.20;91.10;;;;;;5076306;28;20253;-82
2023/12/18 03:04:29;;;;;;;2.13;1.93;;;5.20;91.10;;;;;;5071739;28;20207;-82
2023/12/18 03:06:58;;;;;;;6.50;4.43;;;5.20;91.10;;;;;;5069215;28;20203;-82
2023/12/18 03:09:26;;;;;;;2.17;2.00;;;5.10;91.20;;;;;;5067469;28;20683;-83
2023/12/18 03:11:55;;;;;;;2.50;2.30;;;5.10;91.20;;;;;;5078360;28;20239;-83
2023/12/18 03:14:23;;;;;;;2.53;2.40;;;5.00;91.30;;;;;;5082327;28;20774;-83
2023/12/18 03:16:54;;;;;;;2.13;2.03;;;5.10;91.30;;;;;;5086516;28;20198;-81
2023/12/18 03:19:22;;;;;;;1.43;1.30;;;5.10;91.40;;;;;;5073350;28;20537;-81
2023/12/18 03:21:51;;;;;;;3.17;2.50;;;5.00;91.40;;;;;;5076982;28;20222;-83
2023/12/18 03:24:19;;;;;;;3.77;3.17;;;5.00;91.50;;;;;;5075417;28;20201;-82
2023/12/18 03:26:50;;;;;;;2.63;2.43;;;4.90;91.50;;;;;;5075747;28;20646;-81
2023/12/18 03:29:19;;;;;;;3.10;2.80;;;4.90;91.50;;;;;;5078579;28;20238;-82
2023/12/18 03:31:48;;;;;;;2.33;1.43;;;4.90;91.60;;;;;;5075108;28;20198;-84
2023/12/18 03:34:25;;;;;;;2.10;1.93;;;4.80;91.60;;;;;;5072037;28;20294;-84
2023/12/18 03:36:54;;;;;;;4.33;3.20;;;4.80;91.70;;;;;;5071867;28;20204;-82
2023/12/18 03:39:22;;;;;;;6.63;4.73;;;4.80;91.70;;;;;;5071745;28;20771;-83
2023/12/18 03:41:51;;;;;;;2.93;2.47;;;4.80;91.80;;;;;;5073999;28;20266;-83
2023/12/18 03:44:22;;;;;;;12.83;3.77;;;4.70;91.80;;;;;;5072710;28;20196;-82
2023/12/18 03:46:50;;;;;;;2.13;1.97;;;4.70;91.80;;;;;;5083806;28;20659;-82
2023/12/18 03:49:20;;;;;;;8.67;2.60;;;4.80;92.20;;;;;;5081356;28;20182;-82
2023/12/18 03:51:51;;;;;;;6.37;3.97;;;4.70;91.90;;;;;;5070834;28;20293;-82
2023/12/18 03:54:20;;;;;;;3.20;3.00;;;4.70;92.00;;;;;;5076797;28;21883;-82
2023/12/18 03:56:48;;;;;;;4.33;2.93;;;4.70;92.00;;;;;;5072741;28;20209;-84
2023/12/18 03:59:17;;;;;;;1.23;1.17;;;4.70;92.00;;;;;;5082041;28;20290;-85
2023/12/18 04:01:54;;;;;;;3.03;2.43;;;4.70;92.00;;;;;;5080545;28;20221;-84
2023/12/18 04:04:23;;;;;;;6.37;2.80;;;4.70;92.10;;;;;;5074189;28;20654;-85
2023/12/18 04:06:54;;;;;;;1.57;1.47;;;4.70;92.00;;;;;;5075436;28;20201;-84
2023/12/18 04:09:22;;;;;;;2.97;2.20;;;4.70;92.00;;;;;;5065838;28;20229;-84
2023/12/18 04:11:55;;;;;;;3.23;2.87;;;4.70;92.00;;;;;;5074106;28;20297;-82
2023/12/18 04:14:24;;;;;;;1.57;1.47;;;4.70;92.00;;;;;;5070871;28;20199;-81
2023/12/18 04:16:52;;;;;;;4.07;3.30;;;4.70;92.00;;;;;;5072235;28;20210;-82
2023/12/18 04:19:21;;;;;;;5.27;2.80;;;4.60;92.00;;;;;;5074106;28;20242;-82
2023/12/18 04:21:50;;;;;;;3.73;2.53;;;4.60;92.10;;;;;;5073513;28;20213;-81
2023/12/18 04:24:21;;;;;;;2.57;1.43;;;4.60;92.10;;;;;;5075682;28;20260;-81
2023/12/18 04:26:52;;;;;;;9.43;5.17;;;4.60;92.00;;;;;;5075742;28;20692;-80
2023/12/18 04:29:20;;;;;;;4.13;2.53;;;4.70;92.10;;;;;;5072609;28;20221;-82
2023/12/18 04:31:51;;;;;;;2.33;2.13;;;4.70;92.10;;;;;;5069632;28;20286;-82
2023/12/18 04:34:19;;;;;;;2.27;2.13;;;4.70;92.10;;;;;;5078544;28;20206;-82
2023/12/18 04:36:48;;;;;;;1.63;1.53;;;4.70;92.10;;;;;;5075581;28;20289;-82
2023/12/18 04:39:17;;;;;;;4.37;3.17;;;4.70;92.10;;;;;;5075942;28;20193;-82
2023/12/18 04:41:47;;;;;;;1.67;1.57;;;4.70;92.10;;;;;;5069143;28;20210;-81
2023/12/18 04:44:16;;;;;;;1.90;1.70;;;4.70;92.00;;;;;;5073190;28;20205;-80
2023/12/18 04:46:46;;;;;;;1.63;1.53;;;4.60;92.10;;;;;;5067886;28;20654;-81
2023/12/18 04:49:14;;;;;;;1.60;1.50;;;4.60;92.00;;;;;;5065680;28;20203;-81
2023/12/18 04:51:43;;;;;;;1.77;1.67;;;4.60;92.00;;;;;;5071550;28;20225;-81
2023/12/18 04:54:12;;;;;;;4.20;3.80;;;4.60;92.00;;;;;;5067962;28;20206;-81
2023/12/18 04:56:41;;;;;;;2.83;2.23;;;4.60;92.00;;;;;;5073464;28;20202;-84
2023/12/18 04:59:11;;;;;;;7.73;4.23;;;4.60;92.00;;;;;;5070580;28;20725;-82
2023/12/18 05:01:40;;;;;;;2.23;1.57;;;4.70;92.00;;;;;;5069772;28;20277;-81
2023/12/18 05:04:09;;;;;;;3.93;2.80;;;4.70;92.00;;;;;;5060768;28;20629;-81
2023/12/18 05:06:39;;;;;;;2.30;1.90;;;4.70;92.00;;;;;;5053676;28;20198;-82
2023/12/18 05:09:08;;;;;;;6.33;2.40;;;4.80;91.90;;;;;;5073505;28;20240;-82
2023/12/18 05:11:37;;;;;;;2.83;2.63;;;4.70;91.90;;;;;;5073360;28;20572;-83
2023/12/18 05:14:06;;;;;;;1.53;1.43;;;4.80;91.90;;;;;;5080520;28;20248;-85
2023/12/18 05:16:36;;;;;;;0.93;0.93;;;4.80;91.80;;;;;;5077282;28;20232;-85
2023/12/18 05:19:07;;;;;;;2.87;2.57;;;4.90;91.80;;;;;;5084073;28;20273;-82
2023/12/18 05:21:36;;;;;;;2.33;2.13;;;4.90;91.80;;;;;;5066258;28;20265;-84
2023/12/18 05:24:05;;;;;;;2.87;2.27;;;4.80;92.10;;;;;;5072721;28;20202;-84
2023/12/18 05:26:34;;;;;;;11.43;3.03;;;4.80;91.70;;;;;;5071846;28;20206;-83
2023/12/18 05:29:03;;;;;;;6.67;3.23;;;4.80;91.70;;;;;;5071665;28;20197;-84
2023/12/18 05:31:31;;;;;;;3.43;3.20;;;4.80;91.70;;;;;;5070994;28;20226;-83
2023/12/18 05:34:05;;;;;;;3.60;2.13;;;4.80;91.70;;;;;;5073327;28;20195;-84
2023/12/18 05:36:33;;;;;;;6.37;1.83;;;4.80;91.70;;;;;;5072341;28;20202;-82
2023/12/18 05:39:02;;;;;;;2.40;1.23;;;4.90;91.70;;;;;;5085574;28;20198;-86
2023/12/18 05:41:31;;;;;;;2.70;2.50;;;4.80;91.70;;;;;;5088425;28;20243;-86
2023/12/18 05:44:01;;;;;;;1.10;1.10;;;4.80;91.70;;;;;;5088502;28;20210;-88
2023/12/18 05:46:32;;;;;;;3.00;2.30;;;4.70;91.80;;;;;;5080386;28;20265;-90
2023/12/18 05:49:01;;;;;;;8.17;4.50;;;4.70;91.80;;;;;;5081603;28;20198;-86
2023/12/18 05:51:31;;;;;;;4.57;4.27;;;4.70;91.80;;;;;;5080317;28;20222;-86
2023/12/18 05:53:59;;;;;;;2.17;2.07;;;4.70;91.80;;;;;;5081887;28;20201;-87
2023/12/18 05:56:28;;;;;;;3.07;2.70;;;4.60;91.90;;;;;;5080574;28;20428;-86
2023/12/18 05:58:58;;;;;;;3.00;2.80;;;4.60;92.00;;;;;;5086596;28;20218;-87
2023/12/18 06:01:27;;;;;;;3.63;3.27;;;4.70;92.00;;;;;;5084766;28;20292;-87
2023/12/18 06:03:56;;;;;;;5.30;3.17;;;4.70;92.00;;;;;;5090342;28;20208;-87
2023/12/18 06:06:25;;;;;;;3.10;2.80;;;4.70;92.00;;;;;;5067676;28;20200;-88
2023/12/18 06:08:55;;;;;;;4.83;3.17;;;4.70;91.90;;;;;;5082706;28;20265;-89
2023/12/18 06:11:24;;;;;;;3.47;2.70;;;4.70;91.90;;;;;;5090199;28;20684;-88
2023/12/18 06:13:52;;;;;;;1.83;1.73;;;4.70;91.90;;;;;;5080983;28;20256;-89
2023/12/18 06:16:21;;;;;;;1.67;1.57;;;4.80;91.90;;;;;;5081952;28;20194;-88
2023/12/18 06:18:50;;;;;;;2.37;1.83;;;4.80;91.80;;;;;;5074159;28;20204;-88
2023/12/18 06:21:19;;;;;;;8.43;3.63;;;4.80;91.80;;;;;;5077843;28;20225;-87
2023/12/18 06:23:48;;;;;;;4.13;3.72;;;4.80;91.80;;;;;;5082105;28;20432;-86
2023/12/18 06:26:18;;;;;;;3.40;2.40;;;4.80;91.80;;;;;;5081885;28;20207;-86
2023/12/18 06:28:47;;;;;;;2.70;2.50;;;4.90;91.80;;;;;;5074862;28;20203;-87
2023/12/18 06:31:16;;;;;;;2.57;2.37;;;4.80;91.80;;;;;;5075860;28;20689;-85
2023/12/18 06:33:52;;;;;;;4.80;3.20;;;4.80;91.80;;;;;;5080558;28;20231;-87
2023/12/18 06:36:21;;;;;;;4.17;2.50;;;4.80;91.80;;;;;;5082457;28;20265;-87
2023/12/18 06:38:50;;;;;;;1.70;1.60;;;4.80;91.90;;;;;;5081950;28;20776;-88
2023/12/18 06:41:20;;;;;;;2.93;1.67;;;4.80;92.00;;;;;;5079222;28;20206;-85
2023/12/18 06:43:48;;;;;;;3.40;1.87;;;4.90;92.00;;;;;;5083926;28;20197;-87
2023/12/18 06:46:17;;;;;;;6.03;3.60;;;4.90;92.00;;;;;;5083621;28;20244;-87
2023/12/18 06:48:45;;;;;;;3.13;2.73;;;4.90;92.00;;;;;;5082947;28;20195;-86
2023/12/18 06:51:14;;;;;;;2.40;1.80;;;4.80;91.90;;;;;;5079532;28;20232;-87
2023/12/18 06:53:43;;;;;;;2.77;1.97;;;4.80;92.00;;;;;;5084548;28;20233;-89
2023/12/18 06:56:11;;;;;;;2.57;2.40;;;4.80;92.10;;;;;;5079134;28;20206;-87
2023/12/18 06:58:41;;;;;;;3.90;3.53;;;4.80;92.10;;;;;;5089582;28;20282;-85
2023/12/18 07:01:10;;;;;;;7.37;2.67;;;4.70;92.20;;;;;;5078300;28;20198;-85
2023/12/18 07:03:39;;;;;;;2.60;2.40;;;4.80;92.20;;;;;;5076094;28;20206;-84
2023/12/18 07:06:08;;;;;;;2.50;2.30;;;4.80;92.20;;;;;;5071921;28;20199;-86
2023/12/18 07:08:37;;;;;;;1.57;1.47;;;4.90;92.20;;;;;;5082003;28;20216;-82
2023/12/18 07:11:10;;;;;;;4.83;3.73;;;4.90;92.20;;;;;;5079056;28;20228;-84
2023/12/18 07:13:39;;;;;;;2.20;2.03;;;5.00;92.10;;;;;;5076500;28;20198;-84
2023/12/18 07:16:09;;;;;;;3.50;2.47;;;5.00;92.10;;;;;;5068377;28;20645;-86
2023/12/18 07:18:38;;;;;;;5.10;2.73;;;5.10;92.10;;;;;;5075887;28;20216;-86
2023/12/18 07:21:06;;;;;;;4.80;4.37;;;5.20;92.10;;;;;;5076001;28;20218;-85
2023/12/18 07:23:37;;;;;;;3.60;2.30;;;5.30;92.10;;;;;;5075847;28;20668;-86
2023/12/18 07:26:08;;;;;;;3.70;2.43;;;5.40;92.00;;;;;;5072784;28;20197;-85
2023/12/18 07:28:37;;;;;;;1.63;1.53;;;5.50;92.00;;;;;;5079257;28;20213;-85
2023/12/18 07:31:05;;;;;;;2.47;2.20;;;5.50;91.90;;;;;;5077775;28;20193;-84
2023/12/18 07:33:36;;;;;;;3.10;1.30;;;5.50;91.60;;;;;;5077444;28;20322;-85
2023/12/18 07:36:05;;;;;;;1.80;1.70;;;5.60;91.60;;;;;;5078156;28;20258;-84
2023/12/18 07:38:34;;;;;;;3.10;1.97;;;5.70;91.50;;;;;;5076131;28;20205;-85
2023/12/18 07:41:04;;;;;;;3.30;2.07;;;5.80;91.50;;;;;;5076428;28;20216;-88
2023/12/18 07:43:32;;;;;;;6.20;3.60;;;5.80;91.40;;;;;;5081807;28;20209;-86
2023/12/18 07:46:01;;;;;;;2.73;2.33;;;5.90;91.40;;;;;;5079680;28;20211;-84
2023/12/18 07:48:33;;;;;;;2.20;2.10;;;5.90;91.30;;;;;;5076291;28;20201;-84
2023/12/18 07:51:03;;;;;;;3.67;3.10;;;6.00;91.10;;;;;;5073106;28;20637;-84
2023/12/18 07:53:32;;;;;;;2.60;2.40;;;6.00;90.90;;;;;;5073929;28;20229;-84
2023/12/18 07:56:04;;;;;;;2.33;2.13;;;5.90;90.80;;;;;;5076196;28;20221;-86
2023/12/18 07:58:32;;;;;;;5.77;3.13;;;5.90;90.90;;;;;;5083606;28;20233;-84
2023/12/18 08:01:03;;;;;;;7.97;3.43;;;5.90;91.20;;;;;;5077690;28;20210;-82
2023/12/18 08:03:32;;;;;;;2.67;2.47;;;5.90;90.90;;;;;;5079944;28;20233;-85
2023/12/18 08:06:01;;;;;;;4.80;1.47;;;6.00;91.00;;;;;;5075729;28;20259;-82
2023/12/18 08:08:31;;;;;;;2.80;2.57;;;6.10;91.00;;;;;;5083023;28;20224;-83
2023/12/18 08:11:00;;;;;;;9.17;2.47;;;6.10;91.00;;;;;;5073520;28;20217;-82
2023/12/18 08:13:28;;;;;;;3.03;2.63;;;6.10;90.90;;;;;;5069303;28;20285;-82
2023/12/18 08:15:57;;;;;;;5.20;3.03;;;6.20;91.00;;;;;;5078114;28;20197;-82
2023/12/18 08:18:28;;;;;;;2.50;2.30;;;6.30;90.80;;;;;;5076556;28;20210;-83
2023/12/18 08:20:57;;;;;;;1.73;1.63;;;6.40;91.00;;;;;;5074379;28;20197;-83
2023/12/18 08:23:26;;;;;;;3.13;1.97;;;6.50;90.90;;;;;;5071671;28;20232;-82
2023/12/18 08:25:57;;;;;;;6.93;4.63;;;6.60;90.80;;;;;;5072288;28;20244;-83
2023/12/18 08:28:26;;;;;;;2.03;1.60;;;6.70;90.60;;;;;;5073166;28;20194;-84
2023/12/18 08:30:54;;;;;;;2.80;2.10;;;6.70;90.40;;;;;;5072933;28;20220;-83
2023/12/18 08:33:23;;;;;;;1.83;1.73;;;6.80;90.00;;;;;;5071963;28;20271;-82
2023/12/18 08:35:51;;;;;;;1.43;1.33;;;6.90;90.10;;;;;;5070803;28;20226;-83
2023/12/18 08:38:20;;;;;;;3.13;2.50;;;7.00;90.10;;;;;;5071873;28;20221;-82
2023/12/18 08:40:48;;;;;;;3.03;2.30;;;7.10;89.70;;;;;;5072782;28;20213;-82
2023/12/18 08:43:18;;;;;;;1.73;1.60;;;7.20;89.70;;;;;;5074484;28;20201;-83
2023/12/18 08:45:47;;;;;;;3.43;2.57;;;7.30;89.70;;;;;;5072815;28;20616;-82
2023/12/18 08:48:16;;;;;;;4.90;4.13;;;7.40;89.40;;;;;;5082662;28;20239;-82
2023/12/18 08:50:45;;;;;;;4.40;4.00;;;7.50;89.30;;;;;;5076424;28;20293;-82
2023/12/18 08:53:13;;;;;;;1.80;1.70;;;7.60;89.40;;;;;;5072435;28;20218;-82
2023/12/18 08:55:42;;;;;;;4.17;1.77;;;7.60;89.00;;;;;;5071784;28;20205;-81
2023/12/18 08:58:11;;;;;;;2.87;2.47;;;7.70;88.60;;;;;;5079918;28;20190;-82
2023/12/18 09:00:41;;;;;;;1.37;1.27;;;7.80;89.80;;;;;;5072016;28;20210;-82
2023/12/18 09:03:09;;;;;;;4.73;3.03;;;7.90;88.70;;;;;;5068573;28;20257;-81
2023/12/18 09:05:39;;;;;;;2.33;1.97;;;8.10;88.90;;;;;;5073352;28;20203;-82
2023/12/18 09:08:11;;;;;;;2.23;2.03;;;8.20;88.50;;;;;;5071110;28;20908;-83
2023/12/18 09:10:40;;;;;;;2.77;2.57;;;8.30;87.80;;;;;;5072546;28;20202;-83
2023/12/18 09:13:08;;;;;;;1.63;1.37;;;8.30;87.10;;;;;;5072246;28;20229;-83
2023/12/18 09:15:40;;;;;;;7.00;2.33;;;8.40;87.40;;;;;;5072630;28;20206;-81
2023/12/18 09:18:10;;;;;;;2.33;2.13;;;8.40;86.80;;;;;;5085809;28;20239;-81
2023/12/18 09:20:40;;;;;;;3.37;2.07;;;8.50;86.90;;;;;;5077395;28;20198;-83
2023/12/18 09:23:09;;;;;;;1.47;1.37;;;8.50;86.30;;;;;;5074989;28;20199;-83
2023/12/18 09:25:37;;;;;;;1.73;1.63;;;8.60;86.60;;;;;;5080039;28;20213;-81
2023/12/18 09:28:06;;;;;;;4.77;3.00;;;8.60;86.30;;;;;;5070702;28;20204;-82
2023/12/18 09:30:35;;;;;;;4.67;3.10;;;8.70;86.20;;;;;;5074520;28;20620;-82
2023/12/18 09:33:04;;;;;;;5.63;2.23;;;8.80;86.50;;;;;;5083652;28;20276;-82
2023/12/18 09:35:34;;;;;;;4.57;2.40;;;8.80;86.60;;;;;;5067486;28;20204;-83
2023/12/18 09:38:05;;;;;;;1.97;1.50;;;8.80;85.80;;;;;;5072279;28;20195;-80
2023/12/18 09:40:34;;;;;;;2.30;2.00;;;8.80;86.00;;;;;;5061095;28;20206;-80
2023/12/18 09:43:03;;;;;;;8.60;2.07;;;8.80;86.40;;;;;;5072607;28;20193;-82
2023/12/18 09:45:32;;;;;;;4.87;3.27;;;8.80;86.10;;;;;;5078557;28;20312;-82
2023/12/18 09:48:01;;;;;;;3.23;2.40;;;8.80;86.00;;;;;;5072847;28;20201;-82
2023/12/18 09:50:31;;;;;;;3.97;1.90;;;8.90;85.90;;;;;;5071364;28;20207;-82
2023/12/18 09:53:05;;;;;;;5.57;2.17;;;8.90;85.90;;;;;;5074589;28;20694;-83
2023/12/18 09:55:35;;;;;;;3.20;2.57;;;8.90;85.50;;;;;;5071440;28;20261;-83
2023/12/18 09:58:04;;;;;;;2.93;1.97;;;8.90;85.80;;;;;;5076330;28;20207;-82
2023/12/18 10:00:33;;;;;;;4.17;2.13;;;9.00;85.90;;;;;;5061155;28;20663;-83
2023/12/18 10:03:01;;;;;;;3.47;2.37;;;9.10;85.80;;;;;;5068429;28;20635;-82
2023/12/18 10:05:31;;;;;;;4.27;2.40;;;9.20;85.60;;;;;;5071275;28;20230;-83
2023/12/18 10:08:02;;;;;;;1.47;1.37;;;9.20;85.50;;;;;;5069902;28;20195;-82
2023/12/18 10:10:31;;;;;;;3.20;0.90;;;9.30;85.60;;;;;;5064272;28;20298;-81
2023/12/18 10:13:03;;;;;;;1.47;1.37;;;9.30;85.20;;;;;;5063929;28;20631;-83
2023/12/18 10:15:34;;;;;;;1.47;1.17;;;9.40;84.60;;;;;;5071266;28;20218;-83
2023/12/18 10:18:04;;;;;;;6.33;2.53;;;9.40;84.60;;;;;;5070844;28;20194;-81
2023/12/18 10:20:34;;;;;;;1.37;1.27;;;9.50;84.60;;;;;;5066928;28;20198;-82
2023/12/18 10:23:05;;;;;;;1.83;1.60;;;9.50;84.70;;;;;;5072650;28;20202;-82
2023/12/18 10:25:35;;;;;;;2.13;1.93;;;9.50;84.50;;;;;;5075388;28;20658;-82
2023/12/18 10:28:07;;;;;;;3.90;2.13;;;9.60;84.60;;;;;;5070707;28;20241;-82
2023/12/18 10:30:36;;;;;;;5.70;2.47;;;9.60;84.50;;;;;;5071191;28;20617;-82
2023/12/18 10:33:09;;;;;;;5.03;2.90;;;9.70;83.50;;;;;;5071590;28;20650;-82
2023/12/18 10:35:41;;;;;;;3.73;2.73;;;9.70;83.40;;;;;;5074559;28;20263;-82
2023/12/18 10:38:11;;;;;;;5.13;3.27;;;9.80;83.80;;;;;;5085050;28;20194;-83
2023/12/18 10:40:41;;;;;;;3.50;2.50;;;9.80;83.70;;;;;;5082668;28;20198;-83
2023/12/18 10:43:20;;;;;;;1.60;1.50;;;9.90;83.60;;;;;;5073390;28;20213;-83
2023/12/18 10:45:49;;;;;;;3.80;3.07;;;10.10;83.60;;;;;;5072813;28;20199;-83
2023/12/18 10:48:19;;;;;;;1.80;1.70;;;10.30;83.30;;;;;;5073276;28;20194;-83
2023/12/18 10:50:50;;;;;;;5.83;3.17;;;10.40;83.40;;;;;;5084695;28;20190;-83
2023/12/18 10:53:22;;;;;;;2.50;2.30;;;10.50;83.00;;;;;;5077040;28;20645;-83
2023/12/18 10:55:51;;;;;;;1.07;1.00;;;10.60;82.20;;;;;;5083656;28;20208;-83
2023/12/18 10:58:21;;;;;;;2.47;1.80;;;10.70;81.90;;;;;;5085492;28;20222;-84
2023/12/18 11:00:51;;;;;;;3.97;1.90;;;10.80;81.60;;;;;;5083281;28;20229;-85
2023/12/18 11:03:26;;;;;;;9.23;1.83;;;10.80;81.10;;;;;;5080842;28;20198;-83
2023/12/18 11:05:55;;;;;;;5.07;3.27;;;10.90;81.80;;;;;;5082263;28;20215;-82
2023/12/18 11:08:26;;;;;;;2.90;1.60;;;10.90;80.90;;;;;;5072644;28;20213;-82
2023/12/18 11:10:58;;;;;;;2.00;1.57;;;10.90;81.00;;;;;;5082261;28;20629;-84
2023/12/18 11:13:28;;;;;;;3.07;2.73;;;10.90;80.60;;;;;;5078464;28;20198;-81
2023/12/18 11:16:13;;;;;;;5.37;3.00;;;11.00;81.00;;;;;;5080860;28;20269;-82
2023/12/18 11:18:56;;;;;;;7.60;2.67;;;11.00;81.00;;;;;;5070282;28;20233;-84
2023/12/18 11:21:43;;;;;;;2.53;1.80;;;11.10;80.90;;;;;;5082366;28;20236;-83
2023/12/18 11:24:13;;;;;;;1.13;1.07;;;11.10;80.50;;;;;;5077621;28;20206;-82
2023/12/18 11:26:46;;;;;;;3.30;3.03;;;11.20;80.10;;;;;;5076572;28;20210;-82
2023/12/18 11:29:34;;;;;;;1.87;1.67;;;11.30;80.30;;;;;;5077685;28;20190;-83
2023/12/18 11:32:04;;;;;;;4.70;2.93;;;11.40;80.20;;;;;;5078925;28;20194;-84
2023/12/18 11:34:33;;;;;;;2.73;2.07;;;11.40;79.60;;;;;;5075574;28;20214;-81
2023/12/18 11:37:02;;;;;;;4.60;2.70;;;11.50;79.30;;;;;;5071532;28;20190;-83
2023/12/18 11:39:39;;;;;;;4.53;2.10;;;11.40;78.70;;;;;;5075140;28;20519;-81
2023/12/18 11:42:10;;;;;;;2.77;2.37;;;11.40;79.20;;;;;;5072576;28;20200;-84
2023/12/18 11:44:40;;;;;;;8.83;3.57;;;11.30;79.30;;;;;;5066030;28;20265;-82
2023/12/18 11:47:08;;;;;;;2.00;1.87;;;11.30;79.80;;;;;;5069076;28;20209;-83
2023/12/18 11:49:37;;;;;;;3.57;2.93;;;11.20;79.60;;;;;;5070765;28;20195;-81
2023/12/18 11:52:20;;;;;;;1.27;1.17;;;11.30;80.00;;;;;;5070847;28;20198;-81
2023/12/18 11:54:50;;;;;;;1.77;1.47;;;11.20;79.60;;;;;;5081000;28;20840;-82
2023/12/18 11:57:26;;;;;;;2.27;2.07;;;11.20;80.40;;;;;;5080311;28;20195;-83
2023/12/18 11:59:59;;;;;;;3.13;2.40;;;11.30;80.10;;;;;;5069394;28;20224;-81
2023/12/18 12:02:29;;;;;;;3.87;2.93;;;11.30;80.30;;;;;;5062588;28;20209;-81
2023/12/18 12:05:00;;;;;;;1.67;1.13;;;11.40;80.50;;;;;;5067766;28;20194;-80
2023/12/18 12:07:29;;;;;;;7.90;2.77;;;11.50;80.60;;;;;;5071552;28;20223;-81
2023/12/18 12:10:02;;;;;;;3.97;1.10;;;11.50;80.50;;;;;;5075227;28;20198;-82
2023/12/18 12:12:33;;;;;;;1.93;1.50;;;11.70;80.50;;;;;;5077756;28;20205;-81
2023/12/18 12:15:03;;;;;;;3.30;1.73;;;11.60;80.20;;;;;;5070161;28;20226;-82
2023/12/18 12:17:32;;;;;;;1.77;1.67;;;11.60;80.20;;;;;;5071797;28;20227;-82
2023/12/18 12:20:00;;;;;;;7.40;2.10;;;11.50;80.30;;;;;;5078308;28;20198;-83
2023/12/18 12:22:29;;;;;;;3.03;1.43;;;11.50;80.80;;;;;;5072106;28;20198;-82
2023/12/18 12:24:58;;;;;;;2.77;2.27;;;11.50;81.00;;;;;;5079457;28;20226;-80
2023/12/18 12:27:29;;;;;;;2.30;1.90;;;11.50;81.10;;;;;;5068281;28;20254;-80
2023/12/18 12:29:58;;;;;;;2.90;2.60;;;11.60;81.30;;;;;;5078065;28;20202;-81
2023/12/18 12:32:26;;;;;;;2.03;1.77;;;11.50;81.10;;;;;;5066985;28;20214;-81
2023/12/18 12:34:57;;;;;;;4.30;2.80;;;11.60;81.20;;;;;;5063040;28;20222;-82
2023/12/18 12:37:25;;;;;;;1.67;1.50;;;11.60;80.90;;;;;;5078384;28;20254;-81
2023/12/18 12:40:02;;;;;;;2.03;1.90;;;11.50;80.90;;;;;;5076949;28;20198;-80
2023/12/18 12:42:33;;;;;;;3.47;1.57;;;11.60;80.80;;;;;;5079752;28;20206;-84
2023/12/18 12:45:04;;;;;;;3.90;2.03;;;11.60;80.90;;;;;;5064623;28;20229;-85
2023/12/18 12:47:41;;;;;;;1.37;1.27;;;11.60;80.80;;;;;;5073017;28;20667;-85
2023/12/18 12:50:15;;;;;;;1.80;1.63;;;11.60;80.60;;;;;;5074525;28;20702;-85
2023/12/18 12:52:44;;;;;;;1.77;1.67;;;11.60;80.90;;;;;;5070636;28;20297;-85
2023/12/18 12:55:12;;;;;;;2.50;1.90;;;11.60;81.10;;;;;;5073924;28;20214;-84
2023/12/18 12:57:42;;;;;;;1.00;1.00;;;11.70;81.40;;;;;;5083312;28;20368;-85
2023/12/18 13:00:20;;;;;;;1.70;1.40;;;11.80;82.20;;;;;;5078169;28;20236;-84
2023/12/18 13:02:49;;;;;;;2.70;1.70;;;11.90;81.80;;;;;;5075062;28;20204;-81
2023/12/18 13:05:20;;;;;;;1.77;1.63;;;12.10;82.50;;;;;;5073438;28;20285;-84
2023/12/18 13:07:50;;;;;;;2.00;1.17;;;12.40;82.10;;;;;;5073909;28;20202;-82